Time;durP1;ratioP1;P1;durP2;ratioP2;P2;SDS_P1;SDS_P2;PMS_P1;PMS_P2;Temp;Humidity;BMP_temperature;BMP_pressure;BME280_temperature;BME280_humidity;BME280_pressure;Samples;Min_cycle;Max_cycle;Signal;HPM_P1;HPM_P2
2024/04/25 00:02:39;;;;;;;22.80;14.70;;;;;;;6.30;100.00;99162.23;177939;1263;44492;-85
2024/04/25 00:06:41;;;;;;;23.00;16.40;;;;;;;6.32;100.00;99159.43;178684;1262;44464;-84
2024/04/25 00:10:51;;;;;;;25.60;17.50;;;;;;;6.36;100.00;99156.38;178061;1266;46204;-83
2024/04/25 00:14:54;;;;;;;24.60;16.10;;;;;;;6.37;100.00;99153.52;179425;1265;46082;-82
2024/04/25 00:18:57;;;;;;;22.60;16.40;;;;;;;6.42;100.00;99153.31;178961;1266;59302;-83
2024/04/25 00:23:00;;;;;;;18.80;14.80;;;;;;;6.42;100.00;99151.30;178831;1264;44840;-84
2024/04/25 00:27:03;;;;;;;22.00;14.60;;;;;;;6.40;100.00;99148.13;177057;1266;45959;-84
2024/04/25 00:31:06;;;;;;;22.50;14.30;;;;;;;6.34;100.00;99149.34;178124;1264;46107;-84
2024/04/25 00:35:09;;;;;;;24.80;15.00;;;;;;;6.30;100.00;99146.13;177758;1263;46068;-81
2024/04/25 00:39:11;;;;;;;22.80;14.30;;;;;;;6.27;100.00;99145.54;180115;1266;58395;-79
2024/04/25 00:43:14;;;;;;;18.00;13.80;;;;;;;6.22;100.00;99146.16;179802;1266;46142;-83
2024/04/25 00:47:22;;;;;;;18.60;14.70;;;;;;;6.12;98.96;99151.98;178007;1263;46707;-82
2024/04/25 00:51:25;;;;;;;21.00;15.30;;;;;;;6.04;98.95;99151.58;177689;1267;46172;-85
2024/04/25 00:55:28;;;;;;;23.00;15.70;;;;;;;5.92;99.68;99151.52;177719;1266;45931;-83
2024/04/25 00:59:34;;;;;;;20.30;15.10;;;;;;;5.79;99.66;99149.53;178831;1263;57970;-85
2024/04/25 01:03:38;;;;;;;21.40;15.70;;;;;;;5.61;100.00;99142.11;178485;1264;43946;-84
2024/04/25 01:07:41;;;;;;;18.90;16.70;;;;;;;5.52;99.74;99137.04;177982;1262;46017;-80
2024/04/25 01:11:44;;;;;;;21.80;14.70;;;;;;;5.43;99.35;99137.41;178859;1264;44120;-85
2024/04/25 01:15:46;;;;;;;18.60;14.00;;;;;;;5.32;99.11;99134.77;176919;1264;46217;-85
2024/04/25 01:19:49;;;;;;;21.10;15.20;;;;;;;5.25;99.33;99132.27;177429;1262;60081;-83
2024/04/25 01:23:55;;;;;;;26.10;16.70;;;;;;;5.18;99.06;99135.32;177641;1266;46180;-85
2024/04/25 01:27:58;;;;;;;22.10;17.80;;;;;;;5.08;98.92;99140.28;177756;1264;46224;-85
2024/04/25 01:32:05;;;;;;;18.60;15.50;;;;;;;4.93;99.05;99146.52;177581;1264;46193;-83
2024/04/25 01:36:08;;;;;;;22.20;14.30;;;;;;;4.82;99.27;99146.80;177225;1264;46101;-84
2024/04/25 01:40:11;;;;;;;21.60;17.30;;;;;;;4.71;99.29;99145.54;177843;1264;58245;-82
2024/04/25 01:44:13;;;;;;;24.50;16.10;;;;;;;4.61;99.82;99140.11;178405;1264;46042;-82
2024/04/25 01:48:16;;;;;;;21.70;15.50;;;;;;;4.53;100.00;99137.40;178269;1264;46067;-80
2024/04/25 01:52:19;;;;;;;16.70;15.00;;;;;;;4.44;99.69;99140.01;178724;1264;46054;-80
2024/04/25 01:56:22;;;;;;;25.90;15.30;;;;;;;4.36;99.24;99140.92;177471;1264;46080;-84
2024/04/25 02:00:25;;;;;;;19.70;13.90;;;;;;;4.28;98.56;99137.27;178363;1263;59284;-83
2024/04/25 02:04:28;;;;;;;24.00;14.10;;;;;;;4.21;97.80;99136.63;178284;1263;46090;-83
2024/04/25 02:08:31;;;;;;;14.40;10.60;;;;;;;4.04;96.46;99126.38;177947;1264;46058;-84
2024/04/25 02:12:34;;;;;;;13.90;10.80;;;;;;;3.82;95.83;99121.48;178288;1261;45882;-82
2024/04/25 02:16:37;;;;;;;18.80;13.20;;;;;;;3.71;97.04;99125.26;177614;1264;46152;-84
2024/04/25 02:25:16;;;;;;;24.40;14.60;;;;;;;3.60;99.88;99123.08;177792;1263;46018;-84
2024/04/25 02:29:20;;;;;;;21.30;14.90;;;;;;;3.56;99.86;99124.90;178013;1264;44844;-83
2024/04/25 02:33:22;;;;;;;16.60;13.30;;;;;;;3.45;99.92;99126.59;178135;1264;46032;-85
2024/04/25 02:37:25;;;;;;;22.10;17.60;;;;;;;3.06;100.00;99130.66;177901;1264;46211;-84
2024/04/25 02:41:28;;;;;;;23.50;18.30;;;;;;;2.82;100.00;99133.88;178876;1262;58204;-84
2024/04/25 02:45:31;;;;;;;30.30;19.90;;;;;;;2.70;100.00;99128.91;178238;1261;43967;-83
2024/04/25 02:49:34;;;;;;;24.20;17.50;;;;;;;2.59;100.00;99129.27;178805;1262;44140;-84
2024/04/25 02:53:37;;;;;;;27.10;20.00;;;;;;;2.63;100.00;99128.80;178136;1263;46073;-83
2024/04/25 02:57:40;;;;;;;28.10;19.00;;;;;;;2.75;100.00;99130.68;179743;1263;44574;-83
2024/04/25 03:01:43;;;;;;;24.50;17.00;;;;;;;2.84;100.00;99133.70;178367;1264;57468;-83
2024/04/25 03:05:45;;;;;;;30.80;20.90;;;;;;;2.93;100.00;99136.12;177830;1263;46123;-83
2024/04/25 03:09:48;;;;;;;31.70;22.70;;;;;;;3.07;100.00;99136.71;178515;1262;46001;-85
2024/04/25 03:13:51;;;;;;;25.60;19.30;;;;;;;3.22;100.00;99134.14;177628;1263;46001;-82
2024/04/25 03:17:54;;;;;;;39.80;19.70;;;;;;;3.32;100.00;99138.89;178502;1266;44353;-82
2024/04/25 03:21:57;;;;;;;25.70;19.60;;;;;;;3.41;100.00;99142.09;178710;1263;58470;-85
2024/04/25 03:25:59;;;;;;;25.00;17.90;;;;;;;3.45;100.00;99138.83;179419;1264;46165;-82
2024/04/25 03:30:02;;;;;;;30.20;20.10;;;;;;;3.51;100.00;99137.02;178478;1264;46119;-85
2024/04/25 03:34:05;;;;;;;26.80;18.40;;;;;;;3.60;100.00;99139.91;178019;1263;46214;-84
2024/04/25 03:38:08;;;;;;;25.00;16.90;;;;;;;3.65;100.00;99144.61;178117;1264;45944;-84
2024/04/25 03:42:11;;;;;;;21.30;17.60;;;;;;;3.75;100.00;99138.30;177935;1263;59280;-84
2024/04/25 03:46:15;;;;;;;20.90;15.70;;;;;;;3.86;100.00;99143.15;177592;1267;46145;-84
2024/04/25 03:50:20;;;;;;;25.90;18.00;;;;;;;3.96;100.00;99146.84;177529;1263;46112;-84
2024/04/25 03:54:26;;;;;;;22.90;16.20;;;;;;;4.06;100.00;99151.53;178339;1262;46003;-83
2024/04/25 03:58:28;;;;;;;22.70;16.00;;;;;;;4.16;100.00;99155.92;178213;1263;45969;-84
2024/04/25 04:02:31;;;;;;;24.20;19.20;;;;;;;4.28;100.00;99158.38;178962;1262;59273;-84
2024/04/25 04:06:34;;;;;;;21.50;17.20;;;;;;;4.43;100.00;99160.98;177465;1267;46138;-84
2024/04/25 04:10:37;;;;;;;22.90;16.20;;;;;;;4.51;100.00;99160.90;177534;1262;45986;-82
2024/04/25 04:14:40;;;;;;;25.70;18.00;;;;;;;4.57;100.00;99166.02;178049;1262;45956;-82
2024/04/25 04:18:43;;;;;;;22.40;15.50;;;;;;;4.66;100.00;99163.30;178039;1263;46640;-85
2024/04/25 04:22:46;;;;;;;23.80;18.20;;;;;;;4.77;100.00;99161.27;180142;1261;58328;-82
2024/04/25 04:26:49;;;;;;;26.00;18.20;;;;;;;4.98;100.00;99164.93;179566;1262;45951;-82
2024/04/25 04:30:52;;;;;;;21.60;16.10;;;;;;;5.17;100.00;99170.87;178238;1262;46119;-85
2024/04/25 04:34:54;;;;;;;32.00;21.10;;;;;;;5.32;100.00;99164.97;178660;1264;44959;-83
2024/04/25 04:38:57;;;;;;;20.20;17.60;;;;;;;5.99;100.00;99166.05;178133;1261;44484;-84
2024/04/25 04:43:01;;;;;;;21.20;18.00;;;;;;;6.55;100.00;99164.59;177786;1263;59977;-84
2024/04/25 04:47:03;;;;;;;21.90;16.30;;;;;;;6.62;100.00;99166.63;177672;1262;46147;-84
2024/04/25 04:51:06;;;;;;;20.00;14.20;;;;;;;6.71;100.00;99165.70;177227;1262;46042;-83
2024/04/25 04:55:09;;;;;;;26.10;19.40;;;;;;;7.40;100.00;99163.21;177850;1262;46117;-84
2024/04/25 04:59:12;;;;;;;22.70;17.60;;;;;;;8.48;100.00;99160.10;177871;1263;46302;-84
2024/04/25 05:03:15;;;;;;;23.50;18.00;;;;;;;9.28;100.00;99161.28;179022;1262;59645;-85
2024/04/25 05:07:18;;;;;;;25.80;16.60;;;;;;;10.08;97.12;99164.98;179250;1263;46262;-84
2024/04/25 05:11:21;;;;;;;21.10;16.00;;;;;;;10.91;90.32;99166.29;178750;1262;46167;-85
2024/04/25 05:15:24;;;;;;;15.50;12.30;;;;;;;11.31;85.07;99164.77;177611;1263;44038;-84
2024/04/25 05:19:26;;;;;;;20.10;15.10;;;;;;;11.73;81.53;99166.13;178563;1262;46020;-84
2024/04/25 05:23:29;;;;;;;30.30;22.10;;;;;;;12.35;79.80;99167.14;177849;1264;57979;-83
2024/04/25 05:27:36;;;;;;;17.70;13.40;;;;;;;12.56;75.05;99164.40;177915;1262;46001;-85
2024/04/25 05:31:39;;;;;;;15.90;12.90;;;;;;;12.38;74.50;99170.21;178513;1262;45999;-78
2024/04/25 05:35:43;;;;;;;16.40;13.00;;;;;;;12.24;75.12;99168.00;178115;1262;45980;-84
2024/04/25 05:39:46;;;;;;;16.10;12.30;;;;;;;12.38;76.41;99171.75;178121;1263;46014;-83
2024/04/25 05:43:49;;;;;;;18.10;13.30;;;;;;;12.45;75.02;99174.98;178721;1262;59924;-83
2024/04/25 05:47:52;;;;;;;16.00;13.10;;;;;;;12.24;73.59;99175.95;178367;1264;46164;-83
2024/04/25 05:51:55;;;;;;;16.30;14.60;;;;;;;11.89;71.82;99177.45;177777;1262;46125;-83
2024/04/25 05:55:58;;;;;;;18.70;13.80;;;;;;;11.39;73.60;99180.33;177232;1262;46053;-84
2024/04/25 06:00:02;;;;;;;21.70;17.40;;;;;;;10.77;77.38;99188.77;178123;1262;45196;-83
2024/04/25 06:04:05;;;;;;;15.10;11.40;;;;;;;10.37;80.53;99193.02;177457;1262;59763;-81
2024/04/25 06:08:07;;;;;;;22.50;17.10;;;;;;;9.94;81.80;99190.30;178472;1262;46012;-82
2024/04/25 06:12:10;;;;;;;18.70;13.90;;;;;;;9.46;83.55;99193.80;177431;1262;46065;-81
2024/04/25 06:16:14;;;;;;;18.30;14.40;;;;;;;9.21;85.46;99193.95;177741;1263;44331;-83
2024/04/25 06:20:19;;;;;;;21.30;16.20;;;;;;;9.36;89.11;99195.40;177803;1262;44746;-80
2024/04/25 06:24:22;;;;;;;26.40;13.40;;;;;;;9.84;88.44;99192.69;178501;1262;58303;-84
2024/04/25 06:28:24;;;;;;;16.30;14.60;;;;;;;10.42;84.44;99188.19;177304;1262;46080;-82
2024/04/25 06:32:27;;;;;;;15.90;13.60;;;;;;;10.95;77.96;99179.05;177243;1262;46132;-83
2024/04/25 06:36:34;;;;;;;15.00;11.90;;;;;;;11.25;74.76;99180.25;177410;1262;46209;-83
2024/04/25 06:40:37;;;;;;;11.50;9.40;;;;;;;11.66;72.97;99172.45;177640;1262;46246;-84
2024/04/25 06:44:40;;;;;;;13.80;11.00;;;;;;;12.17;71.19;99172.27;177771;1262;59330;-82
2024/04/25 06:48:56;;;;;;;12.20;10.40;;;;;;;12.49;68.60;99177.69;179079;1264;45924;-82
2024/04/25 06:52:59;;;;;;;10.40;8.80;;;;;;;12.50;67.24;99176.60;178182;1262;46112;-83
2024/04/25 06:57:03;;;;;;;10.00;9.00;;;;;;;12.42;65.03;99175.29;178910;1262;45180;-85
2024/04/25 07:01:06;;;;;;;10.50;7.40;;;;;;;12.62;65.31;99183.97;179075;1262;46567;-85
2024/04/25 07:05:09;;;;;;;13.70;8.90;;;;;;;12.63;63.63;99183.52;178442;1262;58219;-83
2024/04/25 07:09:12;;;;;;;10.40;7.60;;;;;;;12.69;64.58;99182.77;180109;1262;46100;-84
2024/04/25 07:13:16;;;;;;;10.60;7.00;;;;;;;12.83;64.39;99186.02;179834;1264;44324;-82
2024/04/25 07:17:19;;;;;;;14.90;8.60;;;;;;;12.80;62.73;99184.21;179978;1262;46141;-84
2024/04/25 07:21:23;;;;;;;12.70;8.90;;;;;;;12.94;63.22;99186.09;177811;1263;45606;-84
2024/04/25 07:25:26;;;;;;;9.20;7.30;;;;;;;13.04;60.71;99185.85;178426;1262;58278;-84
2024/04/25 07:29:29;;;;;;;11.40;7.90;;;;;;;13.12;61.55;99182.73;178687;1262;46062;-84
2024/04/25 07:33:35;;;;;;;8.60;7.10;;;;;;;13.24;60.89;99185.25;178048;1263;46120;-84
2024/04/25 07:37:38;;;;;;;6.90;6.10;;;;;;;13.15;59.98;99184.86;177877;1262;46203;-83
2024/04/25 07:41:41;;;;;;;6.50;5.10;;;;;;;12.95;60.69;99183.70;178171;1262;46116;-84
2024/04/25 07:45:44;;;;;;;7.70;5.20;;;;;;;12.63;58.52;99185.34;178411;1260;57937;-84
2024/04/25 07:49:51;;;;;;;6.10;5.20;;;;;;;12.60;60.07;99184.70;180219;1262;44178;-80
2024/04/25 07:53:55;;;;;;;11.80;3.90;;;;;;;12.64;59.84;99184.83;177792;1262;44774;-84
2024/04/25 07:57:57;;;;;;;3.70;3.40;;;;;;;12.52;57.59;99183.96;177215;1260;45928;-84
2024/04/25 08:02:00;;;;;;;5.10;2.80;;;;;;;12.49;57.43;99183.80;178405;1262;46133;-83
2024/04/25 08:06:03;;;;;;;4.50;3.40;;;;;;;12.58;57.17;99181.40;178285;1262;59801;-83
2024/04/25 08:10:07;;;;;;;2.90;2.60;;;;;;;12.58;57.74;99182.16;179545;1263;46019;-85
2024/04/25 08:14:10;;;;;;;5.00;4.20;;;;;;;12.67;56.91;99182.94;178639;1262;44254;-82
2024/04/25 08:18:13;;;;;;;9.40;5.10;;;;;;;12.80;58.56;99183.71;179493;1261;46079;-84
2024/04/25 08:22:16;;;;;;;9.40;4.40;;;;;;;12.70;58.74;99187.90;178761;1262;44054;-84
2024/04/25 08:26:23;;;;;;;5.50;5.00;;;;;;;12.57;58.41;99185.73;178790;1261;59298;-83
2024/04/25 08:30:26;;;;;;;3.70;3.20;;;;;;;12.47;58.85;99186.36;179959;1262;230750;-80
2024/04/25 08:34:29;;;;;;;4.90;4.00;;;;;;;12.35;59.92;99184.23;180010;1261;44389;-80
2024/04/25 08:38:34;;;;;;;3.10;2.90;;;;;;;12.20;58.30;99187.79;180262;1262;43466;-80
2024/04/25 08:42:37;;;;;;;4.70;2.70;;;;;;;12.19;57.32;99190.68;179125;1262;46512;-84
2024/04/25 08:46:42;;;;;;;4.00;3.40;;;;;;;12.09;57.99;99185.85;178086;1264;58647;-84
2024/04/25 08:50:47;;;;;;;5.30;3.00;;;;;;;12.00;60.11;99187.12;178934;1262;46143;-84
2024/04/25 08:54:51;;;;;;;4.90;4.50;;;;;;;11.83;60.55;99190.67;178194;1263;46106;-83
2024/04/25 08:58:55;;;;;;;3.60;3.10;;;;;;;11.56;62.07;99199.80;178073;1265;46140;-84
2024/04/25 09:02:59;;;;;;;4.20;2.70;;;;;;;11.17;63.31;99203.85;177497;1267;46199;-82
2024/04/25 09:07:10;;;;;;;5.20;3.60;;;;;;;10.56;72.68;99218.91;177193;1262;59933;-84
2024/04/25 09:11:19;;;;;;;5.50;4.00;;;;;;;9.77;81.61;99223.60;177570;1262;46014;-80
2024/04/25 09:15:25;;;;;;;5.40;3.60;;;;;;;9.37;86.59;99226.63;177522;1262;46235;-84
2024/04/25 09:19:28;;;;;;;2.80;2.50;;;;;;;9.32;87.50;99210.33;178290;1262;45983;-85
2024/04/25 09:23:38;;;;;;;4.00;3.70;;;;;;;9.41;83.67;99210.67;177906;1262;45238;-85
2024/04/25 09:27:41;;;;;;;4.30;3.70;;;;;;;9.80;87.73;99213.55;179177;1262;59626;-82
2024/04/25 09:31:44;;;;;;;5.00;1.90;;;;;;;10.06;80.13;99218.54;178759;1262;45944;-83
2024/04/25 09:35:50;;;;;;;2.90;1.90;;;;;;;10.35;78.14;99216.52;177759;1262;46190;-85
2024/04/25 09:39:53;;;;;;;2.10;1.70;;;;;;;10.71;80.56;99217.05;177218;1265;46160;-85
2024/04/25 09:44:03;;;;;;;3.20;2.90;;;;;;;10.95;77.65;99218.05;177326;1262;46049;-83
2024/04/25 09:48:14;;;;;;;2.90;2.50;;;;;;;11.08;77.13;99219.47;177690;1263;57958;-85
2024/04/25 09:52:31;;;;;;;5.70;3.90;;;;;;;10.89;79.21;99223.48;178247;1262;46071;-81
2024/04/25 09:56:36;;;;;;;5.50;4.40;;;;;;;10.70;85.28;99221.27;177698;1262;46095;-86
2024/04/25 10:00:40;;;;;;;;;;;;;;;10.79;86.97;99211.34;178370;1263;46159;-83
2024/04/25 10:04:44;;;;;;;6.30;4.20;;;;;;;11.18;82.13;99206.69;177897;1262;45899;-83
2024/04/25 10:08:47;;;;;;;4.40;3.60;;;;;;;11.58;83.07;99206.59;177607;1262;58351;-84
2024/04/25 10:12:51;;;;;;;3.40;2.70;;;;;;;11.75;77.07;99201.66;177797;1262;46097;-85
2024/04/25 10:16:54;;;;;;;7.70;3.00;;;;;;;11.52;72.26;99203.03;178449;1262;46130;-84
2024/04/25 10:20:58;;;;;;;3.50;2.60;;;;;;;11.26;73.88;99201.43;178066;1262;46103;-85
2024/04/25 10:25:04;;;;;;;2.90;2.50;;;;;;;11.19;71.84;99209.33;177774;1262;45843;-86
2024/04/25 10:29:07;;;;;;;;;;;;;;;11.22;75.21;99207.58;177643;1264;58280;-85
2024/04/25 10:33:10;;;;;;;3.60;3.00;;;;;;;11.33;73.43;99205.72;177078;1264;46208;-85
2024/04/25 10:37:13;;;;;;;6.10;3.10;;;;;;;11.36;72.44;99209.14;177865;1262;46029;-84
2024/04/25 10:41:16;;;;;;;6.70;2.80;;;;;;;11.32;74.10;99208.11;178346;1262;46011;-85
2024/04/25 10:45:19;;;;;;;3.00;1.90;;;;;;;11.46;74.28;99206.39;177702;1262;46570;-85
2024/04/25 10:49:22;;;;;;;2.40;1.50;;;;;;;11.52;69.88;99204.86;177140;1262;59456;-85
2024/04/25 10:53:25;;;;;;;2.50;2.20;;;;;;;11.66;71.86;99200.30;177829;1262;46141;-85
2024/04/25 10:57:29;;;;;;;3.70;2.30;;;;;;;11.74;70.72;99197.48;177378;1262;45083;-85
2024/04/25 11:01:32;;;;;;;2.00;1.80;;;;;;;11.81;68.16;99187.88;177537;1263;46481;-83
2024/04/25 11:05:40;;;;;;;3.20;2.00;;;;;;;11.93;66.69;99187.18;177244;1262;46241;-84
2024/04/25 11:09:43;;;;;;;2.10;1.80;;;;;;;12.21;68.88;99189.89;177572;1262;58224;-85
2024/04/25 11:13:46;;;;;;;1.80;1.70;;;;;;;12.57;66.31;99185.98;177692;1262;46153;-84
2024/04/25 11:17:49;;;;;;;4.30;2.20;;;;;;;12.67;64.13;99180.20;177779;1262;44525;-84
2024/04/25 11:22:10;;;;;;;1.00;0.90;;;;;;;12.76;62.79;99184.50;177689;1262;46037;-83
2024/04/25 11:26:20;;;;;;;2.30;2.10;;;;;;;12.90;65.71;99182.92;177813;1263;46144;-85
2024/04/25 11:30:24;;;;;;;2.60;1.90;;;;;;;13.18;64.18;99175.32;177863;1262;57781;-85
2024/04/25 11:34:27;;;;;;;3.40;2.00;;;;;;;13.57;63.50;99168.61;177481;1262;45766;-85
2024/04/25 11:38:30;;;;;;;4.40;2.10;;;;;;;13.78;59.12;99163.00;178321;1262;46231;-85
2024/04/25 11:42:33;;;;;;;1.50;1.40;;;;;;;13.99;60.05;99162.67;178240;1262;46138;-86
2024/04/25 11:46:36;;;;;;;1.20;1.10;;;;;;;13.91;55.03;99164.20;178935;1263;44869;-86
2024/04/25 11:50:39;;;;;;;1.30;1.20;;;;;;;13.66;54.87;99168.19;179313;1262;57923;-86
2024/04/25 11:54:42;;;;;;;3.90;1.40;;;;;;;13.33;54.31;99168.30;177628;1262;46128;-86
2024/04/25 11:58:44;;;;;;;3.00;1.60;;;;;;;13.03;56.38;99171.41;177635;1262;44201;-81
2024/04/25 12:02:48;;;;;;;1.50;1.40;;;;;;;12.83;57.00;99170.13;177509;1265;45992;-84
2024/04/25 12:06:51;;;;;;;3.20;1.10;;;;;;;12.55;58.80;99167.33;177966;1263;46006;-85
2024/04/25 12:10:54;;;;;;;2.00;1.60;;;;;;;12.33;58.98;99172.48;177862;1262;59775;-86
2024/04/25 12:14:59;;;;;;;3.00;1.10;;;;;;;12.12;60.97;99176.02;177803;1262;46067;-86
2024/04/25 12:19:02;;;;;;;2.70;2.30;;;;;;;11.85;61.25;99184.42;177201;1261;46189;-83
2024/04/25 12:23:05;;;;;;;1.90;1.70;;;;;;;11.47;65.20;99213.41;177579;1262;46090;-84
2024/04/25 12:27:08;;;;;;;4.40;2.70;;;;;;;10.55;71.44;99227.13;178307;1262;46005;-84
2024/04/25 12:31:12;;;;;;;4.70;2.70;;;;;;;9.36;86.03;99233.10;177844;1262;58352;-85
2024/04/25 12:35:15;;;;;;;21.50;13.20;;;;;;;8.50;91.03;99240.38;178062;1262;46103;-81
2024/04/25 12:39:18;;;;;;;7.60;4.70;;;;;;;7.77;99.26;99246.70;177214;1262;46127;-86
2024/04/25 12:43:26;;;;;;;6.00;3.90;;;;;;;7.40;100.00;99263.59;178507;1262;46006;-83
2024/04/25 12:47:29;;;;;;;4.80;2.90;;;;;;;7.39;100.00;99280.29;178090;1262;46123;-84
2024/04/25 12:51:33;;;;;;;4.00;3.10;;;;;;;7.45;100.00;99291.55;178471;1263;58641;-83
2024/04/25 12:55:36;;;;;;;2.90;2.70;;;;;;;7.40;100.00;99301.05;178627;1262;46134;-85
2024/04/25 12:59:39;;;;;;;7.00;3.00;;;;;;;7.39;100.00;99288.37;178351;1262;44598;-86
2024/04/25 13:03:42;;;;;;;3.80;3.20;;;;;;;7.50;100.00;99277.43;178730;1262;46055;-87
2024/04/25 13:07:45;;;;;;;5.40;2.80;;;;;;;7.96;100.00;99262.75;180166;1262;45979;-84
2024/04/25 13:11:48;;;;;;;3.40;3.10;;;;;;;8.63;100.00;99252.64;179824;1262;59645;-85
2024/04/25 13:15:50;;;;;;;3.60;2.80;;;;;;;9.00;99.72;99251.05;178595;1262;45909;-86
2024/04/25 13:19:53;;;;;;;2.10;1.90;;;;;;;9.28;100.00;99247.83;178861;1262;44214;-86
2024/04/25 13:23:56;;;;;;;3.80;2.40;;;;;;;9.65;99.19;99242.64;178642;1262;46064;-86
2024/04/25 13:27:59;;;;;;;3.10;2.70;;;;;;;9.96;96.77;99237.35;178011;1262;45978;-85
2024/04/25 13:32:02;;;;;;;3.20;1.60;;;;;;;10.20;93.42;99234.98;179198;1262;59767;-86
2024/04/25 13:36:05;;;;;;;1.10;1.00;;;;;;;10.40;95.80;99230.20;179456;1263;44398;-87
2024/04/25 13:40:09;;;;;;;5.30;2.30;;;;;;;10.58;88.11;99231.77;179106;1262;43957;-86
2024/04/25 13:44:12;;;;;;;2.80;1.40;;;;;;;10.75;90.85;99233.17;178313;1262;44167;-87
2024/04/25 13:48:14;;;;;;;1.00;0.90;;;;;;;10.76;84.54;99230.53;177951;1262;46079;-86
2024/04/25 13:52:18;;;;;;;2.70;1.90;;;;;;;10.84;83.54;99231.25;178325;1262;58277;-87
2024/04/25 13:56:21;;;;;;;1.90;1.70;;;;;;;11.02;81.68;99231.91;179503;1262;45930;-87
2024/04/25 14:00:24;;;;;;;1.70;1.60;;;;;;;11.31;86.17;99229.16;178700;1262;46014;-87
2024/04/25 14:04:27;;;;;;;2.50;2.20;;;;;;;11.60;84.59;99229.14;179288;1262;45067;-85
2024/04/25 14:08:30;;;;;;;1.90;1.60;;;;;;;11.95;86.67;99223.54;179158;1263;46159;-88
2024/04/25 14:12:33;;;;;;;3.20;1.70;;;;;;;12.15;79.04;99214.80;179082;1262;58411;-85
2024/04/25 14:16:36;;;;;;;1.80;1.00;;;;;;;12.30;79.52;99215.67;178838;1262;46202;-87
2024/04/25 14:20:39;;;;;;;4.00;3.40;;;;;;;12.37;75.53;99210.83;178983;1262;46044;-88
2024/04/25 14:24:45;;;;;;;3.20;2.90;;;;;;;12.20;75.86;99209.04;178707;1262;46025;-86
2024/04/25 14:28:52;;;;;;;;;;;;;;;11.90;78.20;99212.88;179242;1264;43841;-86
2024/04/25 14:32:55;;;;;;;2.10;1.70;;;;;;;11.56;78.38;99221.36;180017;1262;58297;-87
2024/04/25 14:36:59;;;;;;;2.80;2.50;;;;;;;11.38;78.21;99224.42;178520;1262;46044;-85
2024/04/25 14:41:03;;;;;;;2.20;2.00;;;;;;;11.21;80.59;99225.38;179608;1262;44651;-86
2024/04/25 14:45:11;;;;;;;2.90;1.90;;;;;;;11.09;79.37;99233.38;178328;1265;46115;-88
2024/04/25 14:49:14;;;;;;;10.00;5.50;;;;;;;11.09;81.10;99242.52;179040;1262;46031;-87
2024/04/25 14:53:17;;;;;;;4.90;3.20;;;;;;;11.19;80.92;99243.03;178226;1263;60633;-86
2024/04/25 14:57:20;;;;;;;8.80;6.00;;;;;;;11.34;87.94;99246.66;177626;1263;46142;-87
2024/04/25 15:01:23;;;;;;;7.80;4.20;;;;;;;11.48;85.06;99240.63;178774;1262;44153;-88
2024/04/25 15:05:27;;;;;;;3.50;2.40;;;;;;;11.69;82.51;99235.68;177942;1264;44937;-86
2024/04/25 15:09:30;;;;;;;5.90;3.90;;;;;;;11.79;83.57;99233.20;178825;1262;45918;-88
2024/04/25 15:13:33;;;;;;;5.30;2.20;;;;;;;12.02;81.27;99225.02;178699;1263;59393;-87
2024/04/25 15:17:38;;;;;;;1.30;0.80;;;;;;;12.34;78.01;99220.41;179495;1262;44508;-89
2024/04/25 15:21:45;;;;;;;2.90;2.20;;;;;;;12.59;76.05;99219.92;178287;1263;46142;-84
2024/04/25 15:25:48;;;;;;;1.50;1.20;;;;;;;12.75;70.68;99216.41;177541;1262;44253;-84
2024/04/25 15:29:51;;;;;;;6.80;3.50;;;;;;;12.91;69.56;99213.95;177863;1262;46036;-86
2024/04/25 15:34:11;;;;;;;;;;;;;;;;;;;;;
2024/04/25 15:38:45;;;;;;;3.20;1.40;;;;;;;13.10;72.73;99222.39;180996;1256;45740;31
2024/04/25 15:58:20;;;;;;;0.50;0.50;;;;;;;11.73;70.64;99234.83;179448;1258;57925;31
2024/04/25 16:12:50;;;;;;;1.90;0.70;;;;;;;11.92;71.58;99238.64;180634;1258;45201;31
2024/04/25 16:26:29;;;;;;;0.80;0.70;;;;;;;12.20;69.90;99237.00;179604;1261;45383;31
2024/04/25 16:30:56;;;;;;;;;;;;;;;12.16;68.48;99237.56;180731;1259;44230;31
2024/04/25 16:35:48;;;;;;;1.20;0.80;;;;;;;11.96;68.94;99242.80;180587;1260;44441;31
2024/04/25 16:45:30;;;;;;;6.10;3.10;;;;;;;11.71;68.07;99248.34;179369;1259;58191;31
2024/04/25 16:49:52;;;;;;;1.20;1.10;;;;;;;11.68;69.42;99246.71;180524;1263;44714;31
2024/04/25 16:54:00;;;;;;;3.00;1.40;;;;;;;11.63;70.81;99248.73;180593;1257;44753;31
2024/04/25 16:58:26;;;;;;;2.00;1.30;;;;;;;11.60;70.44;99245.29;180772;1257;44568;31
2024/04/25 17:02:32;;;;;;;1.30;0.90;;;;;;;11.55;69.41;99247.19;180664;1257;44229;31
2024/04/25 17:06:58;;;;;;;1.70;1.10;;;;;;;11.51;71.36;99257.16;180631;1259;59651;31
2024/04/25 17:11:27;;;;;;;1.50;1.30;;;;;;;11.44;71.17;99256.81;180754;1261;45475;31
2024/04/25 17:20:39;;;;;;;3.20;0.90;;;;;;;11.23;71.61;99256.08;180079;1261;44857;31
2024/04/25 17:29:49;;;;;;;1.50;1.10;;;;;;;11.03;75.26;99265.84;178543;1257;57988;31
2024/04/25 17:34:09;;;;;;;2.00;1.20;;;;;;;10.85;74.00;99269.20;180777;1257;44222;31
2024/04/25 17:38:32;;;;;;;1.90;1.60;;;;;;;10.71;74.88;99272.90;180795;1262;45169;31
2024/04/25 17:42:56;;;;;;;4.90;0.70;;;;;;;10.58;73.82;99281.98;180724;1258;44470;31
2024/04/25 17:47:10;;;;;;;1.40;1.30;;;;;;;10.44;72.67;99289.88;180565;1259;44415;31
2024/04/25 17:56:09;;;;;;;2.10;1.30;;;;;;;10.16;72.29;99304.55;180507;1258;45580;31
2024/04/25 18:00:53;;;;;;;2.20;1.10;;;;;;;9.99;75.83;99309.71;179634;1257;45014;31
2024/04/25 18:05:01;;;;;;;1.90;1.40;;;;;;;9.71;79.14;99315.48;180756;1258;44230;31
2024/04/25 18:09:23;;;;;;;57.80;32.10;;;;;;;9.42;81.02;99319.10;180220;1259;45331;-83
2024/04/25 18:13:29;;;;;;;89.20;41.90;;;;;;;9.17;80.37;99327.57;179748;1267;58625;-88
2024/04/25 18:27:22;;;;;;;290.80;159.60;;;;;;;8.64;81.65;99335.25;179474;1259;44212;31
2024/04/25 18:31:28;;;;;;;177.90;98.20;;;;;;;8.49;81.45;99333.39;180822;1257;43479;-84
2024/04/25 18:35:37;;;;;;;;;;;;;;;8.34;81.81;99347.73;180788;1260;59336;31
2024/04/25 18:48:39;;;;;;;50.60;29.30;;;;;;;7.86;84.53;99371.21;180058;1267;44039;-86
2024/04/25 18:52:46;;;;;;;72.70;40.30;;;;;;;7.63;87.52;99370.05;180239;1267;44567;-83
2024/04/25 19:01:22;;;;;;;37.50;20.10;;;;;;;7.33;89.08;99386.27;178919;1261;44739;-83
2024/04/25 19:05:25;;;;;;;35.60;26.50;;;;;;;7.15;89.57;99388.96;180636;1265;44200;-84
2024/04/25 19:18:43;;;;;;;20.20;13.20;;;;;;;6.61;92.24;99384.13;177551;1262;60904;-87
2024/04/25 19:22:46;;;;;;;21.30;13.60;;;;;;;6.45;92.47;99386.95;178436;1265;46104;-87
2024/04/25 19:26:49;;;;;;;20.20;13.10;;;;;;;6.33;93.35;99388.39;178053;1267;45946;-84
2024/04/25 19:30:53;;;;;;;20.80;11.00;;;;;;;6.22;94.35;99391.73;178083;1270;46107;-88
2024/04/25 19:34:57;;;;;;;22.40;11.50;;;;;;;6.10;93.42;99398.11;179046;1267;46815;-85
2024/04/25 19:39:03;;;;;;;16.80;9.90;;;;;;;5.96;94.22;99401.98;177263;1267;59262;-84
2024/04/25 19:43:06;;;;;;;16.90;9.10;;;;;;;5.86;94.91;99405.48;178725;1268;44110;-86
2024/04/25 19:47:10;;;;;;;16.90;8.60;;;;;;;5.82;95.33;99404.22;179635;1267;44766;-85
2024/04/25 19:51:13;;;;;;;15.30;10.90;;;;;;;5.79;94.68;99403.05;177622;1267;44909;-86
2024/04/25 19:55:16;;;;;;;20.30;12.60;;;;;;;5.77;94.32;99410.10;178935;1270;46033;-87
2024/04/25 19:59:20;;;;;;;20.70;13.50;;;;;;;5.72;96.19;99416.59;178248;1268;60412;-85
2024/04/25 20:03:23;;;;;;;19.30;13.20;;;;;;;5.56;98.29;99417.39;178792;1267;46014;-85
2024/04/25 20:07:30;;;;;;;32.30;20.40;;;;;;;5.43;98.93;99427.70;178775;1268;46068;-83
2024/04/25 20:11:34;;;;;;;37.70;21.90;;;;;;;5.33;99.64;99425.30;179267;1268;44219;-81
2024/04/25 20:15:37;;;;;;;24.00;15.00;;;;;;;5.28;98.85;99429.46;179283;1267;46021;-84
2024/04/25 20:24:02;;;;;;;16.80;13.10;;;;;;;5.18;97.90;99428.98;178277;1267;46018;-84
2024/04/25 20:28:07;;;;;;;18.50;11.40;;;;;;;5.12;97.89;99432.05;178390;1268;228300;-83
2024/04/25 20:32:10;;;;;;;15.40;11.40;;;;;;;5.08;96.48;99439.00;178484;1267;44246;-84